This is the latest recevied weather packets stored in our database for station/object DM4XI-13. If no packets are shown the sender has not sent any weather packets the latest 1 day(s).
| Time | Temp. | Humidity | Pressure | Rain* | Wind** | Luminosity | Snow |
|---|---|---|---|---|---|---|---|
| 1778060663 | 17.78° C | 60% | 1005.1 hPa | 0 mm | 0 m/s | 583 W/m² | - |
| 1778060602 | 17.78° C | 61% | 1005.2 hPa | 0 mm | 0.45 m/s, 153° | 588 W/m² | - |
| 1778060541 | 17.22° C | 64% | 1005.1 hPa | 0 mm | 0 m/s | 586 W/m² | - |
| 1778060419 | 17.22° C | 65% | 1005.2 hPa | 0 mm | 0.89 m/s, 177° | 549 W/m² | - |
| 1778060294 | 16.67° C | 66% | 1005.1 hPa | 0 mm | 0.89 m/s, 190° | 407 W/m² | - |
| 1778060233 | 16.67° C | 66% | 1005.1 hPa | 0 mm | 0.45 m/s, 144° | 447 W/m² | - |
| 1778060172 | 16.67° C | 66% | 1005.2 hPa | 0 mm | 0.89 m/s, 105° | 350 W/m² | - |
| 1778060111 | 16.67° C | 66% | 1005.3 hPa | 0 mm | 0 m/s | 311 W/m² | - |
| 1778060050 | 16.67° C | 65% | 1005.2 hPa | 0 mm | 1.34 m/s, 153° | 303 W/m² | - |
| 1778059989 | 16.67° C | 65% | 1005.1 hPa | 0 mm | 1.34 m/s, 135° | 413 W/m² | - |
| 1778059928 | 17.22° C | 66% | 1005.2 hPa | 0 mm | 1.79 m/s, 181° | 317 W/m² | - |
| 1778059867 | 17.22° C | 65% | 1005.3 hPa | 0 mm | 1.79 m/s, 154° | 336 W/m² | - |
| 1778059684 | 16.67° C | 66% | 1005.2 hPa | 0 mm | 0 m/s | 235 W/m² | - |
| 1778059561 | 16.67° C | 66% | 1005.2 hPa | 0 mm | 0.89 m/s, 16° | 236 W/m² | - |
| 1778059318 | 17.22° C | 64% | 1005.2 hPa | 0 mm | 0.89 m/s, 12° | 243 W/m² | - |
| 1778059134 | 17.22° C | 63% | 1005 hPa | 0 mm | 0.45 m/s, 65° | 258 W/m² | - |
| 1778058952 | 16.67° C | 66% | 1005.2 hPa | 0 mm | 0.45 m/s, 167° | 309 W/m² | - |
| 1778058891 | 16.67° C | 68% | 1005.2 hPa | 0 mm | 0 m/s | 590 W/m² | - |
| 1778058768 | 16.67° C | 68% | 1005.2 hPa | 0 mm | 0 m/s | 237 W/m² | - |
| 1778058707 | 16.11° C | 69% | 1005.3 hPa | 0 mm | 0 m/s | 214 W/m² | - |
| 1778058647 | 16.11° C | 69% | 1005.2 hPa | 0 mm | 0 m/s | 184 W/m² | - |
| 1778058525 | 16.11° C | 69% | 1005.5 hPa | 0 mm | 0.45 m/s, 174° | 191 W/m² | - |
| 1778058464 | 16.11° C | 69% | 1005.3 hPa | 0 mm | 0.45 m/s, 188° | 201 W/m² | - |
| 1778058408 | 16.11° C | 72% | 1005.4 hPa | 0 mm | 0.45 m/s, 182° | 210 W/m² | - |
| 1778058280 | 16.11° C | 71% | 1005.3 hPa | 0 mm | 0.89 m/s, 189° | 226 W/m² | - |
* Rain latest hour (hover to see other rain measurements)
** Current wind speed in m/s (hover to see current wind gust speed)